createdAt,value
2017-03-10T16:19:13.771Z,62.50
2017-03-10T16:20:12.782Z,62.40
2017-03-10T16:21:12.210Z,62.00
2017-03-10T16:22:11.215Z,62.10
2017-03-10T16:23:09.790Z,62.10
2017-03-10T16:24:08.753Z,62.80
2017-03-10T16:25:07.864Z,62.90
2017-03-10T16:26:06.822Z,63.00
2017-03-10T16:27:05.386Z,63.00
2017-03-10T16:28:03.927Z,63.00
2017-03-10T16:29:03.162Z,63.50
2017-03-10T16:30:02.202Z,64.80
2017-03-10T16:31:01.152Z,64.70
2017-03-10T16:32:00.099Z,64.00
2017-03-10T16:32:59.090Z,63.90
2017-03-10T16:33:57.670Z,63.90
2017-03-10T16:34:56.702Z,63.70
2017-03-10T16:35:55.798Z,64.60
2017-03-10T16:36:54.762Z,65.50
2017-03-10T16:37:53.366Z,65.50
2017-03-10T16:38:52.398Z,64.40
2017-03-10T16:39:51.507Z,64.70
2017-03-10T16:40:50.725Z,65.30
2017-03-10T16:41:49.687Z,64.10
2017-03-10T16:42:48.662Z,63.90
2017-03-10T16:43:47.254Z,63.90
2017-03-10T16:44:46.225Z,63.30
2017-03-10T16:45:45.342Z,63.20
2017-03-10T16:46:44.316Z,62.60
2017-03-10T16:47:43.437Z,63.70
2017-03-10T16:48:42.430Z,62.80
2017-03-10T16:49:41.445Z,63.60
2017-03-10T16:50:40.527Z,63.50
2017-03-10T16:51:39.483Z,64.00
2017-03-10T16:52:38.474Z,65.00
2017-03-10T16:53:37.074Z,65.00
2017-03-10T16:54:35.672Z,63.90
2017-03-10T16:55:34.635Z,65.20
2017-03-10T16:56:33.593Z,65.10
2017-03-10T16:57:32.628Z,65.00
2017-03-10T16:58:31.619Z,65.40
2017-03-10T16:59:30.643Z,65.80
2017-03-10T17:00:29.627Z,65.20
2017-03-10T17:01:28.672Z,65.30
2017-03-10T17:02:27.724Z,65.10
2017-03-10T17:03:27.066Z,64.40
2017-03-10T17:04:26.023Z,64.30
2017-03-10T17:05:24.979Z,64.90
2017-03-10T17:06:23.952Z,65.20
2017-03-10T17:07:22.942Z,64.60
2017-03-10T17:08:22.081Z,63.70
2017-03-10T17:09:21.095Z,64.30
2017-03-10T17:10:20.266Z,64.00
2017-03-10T17:11:19.247Z,65.00
2017-03-10T17:12:18.271Z,65.20
2017-03-10T17:13:17.417Z,65.30
2017-03-10T17:14:16.398Z,65.00
2017-03-10T17:15:15.370Z,64.80
2017-03-10T17:16:14.395Z,64.70
2017-03-10T17:17:13.391Z,64.90
2017-03-10T17:18:11.981Z,64.90
2017-03-10T17:19:10.947Z,65.70
2017-03-10T17:20:09.580Z,65.70
2017-03-10T17:21:08.551Z,64.80
2017-03-10T17:22:07.551Z,65.20
2017-03-10T17:23:06.507Z,65.50
2017-03-10T17:24:05.593Z,65.20
2017-03-10T17:25:04.579Z,65.70
2017-03-10T17:26:03.649Z,65.70
2017-03-10T17:27:02.621Z,65.70
2017-03-10T17:28:01.148Z,65.70
2017-03-10T17:29:00.158Z,66.30
2017-03-10T17:29:59.109Z,66.90
2017-03-10T17:30:58.077Z,66.90
2017-03-10T17:31:57.130Z,67.40
2017-03-10T17:32:56.113Z,66.20
2017-03-10T17:33:55.155Z,67.50
2017-03-10T17:34:54.164Z,67.50
2017-03-10T17:35:53.606Z,67.40
2017-03-10T17:36:52.574Z,67.50
2017-03-10T17:37:51.594Z,67.90
2017-03-10T17:38:50.633Z,68.20
2017-03-10T17:39:49.634Z,68.10
2017-03-10T17:40:48.997Z,67.30
2017-03-10T17:41:48.008Z,67.60
2017-03-10T17:42:46.985Z,68.80
2017-03-10T17:43:45.973Z,68.00
2017-03-10T17:44:44.966Z,67.60
2017-03-10T17:45:44.095Z,67.60
2017-03-10T17:46:43.287Z,67.50
2017-03-10T17:47:42.281Z,67.80
2017-03-10T17:48:41.255Z,66.80
2017-03-10T17:49:39.781Z,66.80
2017-03-10T17:50:39.834Z,67.00
2017-03-10T17:51:38.424Z,67.00
2017-03-10T17:52:37.388Z,67.40
2017-03-10T17:53:36.022Z,67.40
2017-03-10T17:54:34.970Z,66.90
2017-03-10T17:55:34.012Z,66.50
2017-03-10T17:56:33.003Z,66.40
2017-03-10T17:57:32.039Z,66.90
2017-03-10T17:58:31.066Z,66.20
2017-03-10T17:59:29.789Z,66.20
2017-03-10T18:00:28.690Z,66.60
2017-03-10T18:01:27.743Z,66.70
2017-03-10T18:02:26.734Z,66.00
2017-03-10T18:03:25.719Z,66.60
2017-03-10T18:04:24.743Z,65.60
2017-03-10T18:05:23.751Z,65.50
2017-03-10T18:06:22.811Z,68.70
2017-03-10T18:07:22.026Z,67.20
2017-03-10T18:08:21.017Z,65.70
2017-03-10T18:09:20.044Z,66.30
2017-03-10T18:10:19.051Z,66.50
2017-03-10T18:11:18.066Z,66.80
2017-03-10T18:12:17.116Z,66.70
2017-03-10T18:13:16.181Z,66.70
2017-03-10T18:14:15.273Z,67.00
2017-03-10T18:15:14.243Z,67.30
2017-03-10T18:16:13.218Z,67.40
2017-03-10T18:17:12.202Z,68.40
2017-03-10T18:18:11.232Z,68.40
2017-03-10T18:19:10.226Z,67.00
2017-03-10T18:20:09.279Z,66.60
2017-03-10T18:21:08.234Z,67.90
2017-03-10T18:22:07.287Z,67.90
2017-03-10T18:23:05.875Z,67.90
2017-03-10T18:24:04.623Z,67.00
2017-03-10T18:25:03.572Z,66.60
2017-03-10T18:26:02.141Z,66.60
2017-03-10T18:27:01.135Z,66.50
2017-03-10T18:28:00.087Z,66.30
2017-03-10T18:28:59.026Z,66.40
2017-03-10T18:29:58.054Z,65.80
2017-03-10T18:30:57.078Z,66.10
2017-03-10T18:31:56.070Z,66.30
2017-03-10T18:32:55.090Z,65.50
2017-03-10T18:33:54.140Z,65.00
2017-03-10T18:34:53.104Z,65.20
2017-03-10T18:35:52.106Z,65.50
2017-03-10T18:36:51.090Z,65.60
2017-03-10T18:37:50.682Z,66.50
2017-03-10T18:38:49.739Z,66.20
2017-03-10T18:39:48.878Z,66.10
2017-03-10T18:40:47.902Z,66.30
2017-03-10T18:41:47.635Z,66.60
2017-03-10T18:42:46.672Z,66.20
2017-03-10T18:43:45.607Z,65.90
2017-03-10T18:44:44.589Z,66.20
2017-03-10T18:45:43.582Z,66.10
2017-03-10T18:46:42.650Z,66.10
2017-03-10T18:47:41.778Z,66.40
2017-03-10T18:48:40.899Z,67.00
2017-03-10T18:49:39.471Z,67.00
2017-03-10T18:50:38.455Z,70.70
2017-03-10T18:51:37.461Z,71.30
2017-03-10T18:52:36.447Z,73.00
2017-03-10T18:53:35.483Z,74.70
2017-03-10T18:54:34.513Z,75.30
2017-03-10T18:55:33.221Z,75.30
2017-03-10T18:56:32.308Z,75.30
2017-03-10T18:57:32.967Z,75.10
2017-03-10T18:58:31.715Z,75.10
2017-03-10T18:59:30.649Z,74.70
2017-03-10T19:00:29.718Z,74.90
2017-03-10T19:01:32.108Z,74.30
2017-03-10T19:02:31.396Z,75.60
2017-03-10T19:03:30.095Z,75.60
2017-03-10T19:04:28.657Z,77.00
2017-03-10T19:05:27.690Z,77.80
2017-03-10T19:06:26.679Z,78.10
2017-03-10T19:07:25.327Z,78.10
2017-03-10T19:08:24.283Z,78.70
2017-03-10T19:09:23.344Z,78.40
2017-03-10T19:10:22.346Z,78.60
2017-03-10T19:11:20.899Z,78.60
2017-03-10T19:12:20.058Z,78.00
2017-03-10T19:13:19.193Z,77.90
2017-03-10T19:14:17.775Z,77.90
2017-03-10T19:15:16.528Z,78.30
2017-03-10T19:16:15.548Z,78.80
2017-03-10T19:17:14.573Z,79.30
2017-03-10T19:18:13.711Z,79.40
2017-03-10T19:19:12.813Z,80.10
2017-03-10T19:20:11.880Z,80.10
2017-03-10T19:21:10.993Z,80.10
2017-03-10T19:22:10.497Z,81.00
2017-03-10T19:23:09.542Z,81.00
2017-03-10T19:24:08.851Z,81.40
2017-03-10T19:25:08.225Z,81.10
2017-03-10T19:26:07.479Z,81.50
2017-03-10T19:27:06.658Z,81.60
2017-03-10T19:28:06.301Z,82.60
2017-03-10T19:29:05.376Z,82.10
2017-03-10T19:30:05.136Z,82.30
2017-03-10T19:31:04.207Z,82.90
2017-03-10T19:32:03.975Z,83.20
2017-03-10T19:33:03.229Z,82.20
2017-03-10T19:34:04.110Z,82.00
2017-03-10T19:35:04.193Z,83.00
2017-03-10T19:36:03.770Z,82.60
2017-03-10T19:37:03.352Z,82.10
2017-03-10T19:38:03.042Z,82.60
2017-03-10T19:39:03.352Z,83.10
2017-03-10T19:40:03.428Z,82.80
2017-03-10T19:41:03.664Z,83.00
2017-03-10T19:42:04.249Z,83.60
2017-03-10T19:43:05.019Z,83.70
2017-03-10T19:44:05.714Z,83.50
2017-03-10T19:45:06.945Z,83.30
2017-03-10T19:46:08.056Z,83.70
2017-03-10T19:47:09.165Z,84.00
2017-03-10T19:48:10.487Z,83.90
2017-03-10T19:49:11.557Z,84.00
2017-03-10T19:50:12.680Z,84.00
2017-03-10T19:51:16.441Z,84.00
2017-03-10T19:52:17.847Z,84.30
2017-03-10T19:53:18.759Z,84.30
2017-03-10T19:54:19.906Z,84.20
2017-03-10T19:55:20.937Z,84.20
2017-03-10T19:56:23.097Z,83.90
2017-03-10T19:57:24.354Z,83.70
2017-03-10T19:58:25.241Z,83.70
2017-03-10T19:59:26.412Z,83.60
2017-03-10T20:00:27.553Z,83.60
2017-03-10T20:01:28.658Z,83.60
2017-03-10T20:02:29.591Z,83.90
2017-03-10T20:03:30.580Z,83.60
2017-03-10T20:04:31.867Z,82.50
2017-03-10T20:05:33.273Z,81.90
2017-03-10T20:06:34.717Z,80.90
2017-03-10T20:07:36.344Z,82.90
2017-03-10T20:08:37.596Z,84.10
2017-03-10T20:09:38.939Z,84.90
2017-03-10T20:10:39.914Z,84.90
2017-03-10T20:11:42.056Z,84.40
2017-03-10T20:12:42.959Z,84.40
2017-03-10T20:13:44.274Z,82.90
2017-03-10T20:14:45.619Z,84.60
2017-03-10T20:15:46.978Z,85.10
2017-03-10T20:16:48.665Z,85.50
2017-03-10T20:17:50.005Z,85.10
2017-03-10T20:18:51.341Z,84.40
2017-03-10T20:19:52.596Z,83.60
2017-03-10T20:20:53.538Z,83.60
2017-03-10T20:21:55.125Z,85.20
2017-03-10T20:22:56.792Z,85.90
2017-03-10T20:23:57.703Z,85.90
2017-03-10T20:24:59.877Z,85.40
2017-03-10T20:26:01.246Z,85.90
2017-03-10T20:27:02.971Z,86.10
2017-03-10T20:28:04.445Z,85.80
2017-03-10T20:29:05.742Z,86.10
2017-03-10T20:30:07.449Z,86.20
2017-03-10T20:31:08.934Z,85.30
2017-03-10T20:32:10.303Z,84.50
2017-03-10T20:33:11.597Z,83.60
2017-03-10T20:34:12.936Z,83.60
2017-03-10T20:35:14.348Z,83.80
2017-03-10T20:36:15.314Z,83.80
2017-03-10T20:37:16.636Z,84.70
2017-03-10T20:38:17.516Z,84.70
2017-03-10T20:39:18.871Z,85.20
2017-03-10T20:40:20.204Z,86.10
2017-03-10T20:41:22.322Z,86.50
2017-03-10T20:42:23.323Z,86.50
2017-03-10T20:43:24.611Z,86.30
2017-03-10T20:44:25.853Z,86.10
2017-03-10T20:45:27.281Z,85.50
2017-03-10T20:46:28.189Z,85.50
2017-03-10T20:47:29.572Z,85.20
2017-03-10T20:48:31.012Z,84.40
2017-03-10T20:49:32.644Z,84.10
2017-03-10T20:50:34.038Z,84.50
2017-03-10T20:51:36.065Z,85.80
2017-03-10T20:52:37.452Z,86.50
2017-03-10T20:53:39.067Z,86.70
2017-03-10T20:54:41.385Z,86.90
2017-03-10T20:55:42.728Z,86.80
2017-03-10T20:56:44.251Z,86.90
2017-03-10T20:57:45.632Z,86.90
2017-03-10T20:58:46.916Z,87.40
2017-03-10T20:59:48.310Z,87.80
2017-03-10T21:00:49.674Z,88.00
2017-03-10T21:01:51.177Z,88.10
2017-03-10T21:02:52.510Z,88.40
2017-03-10T21:03:55.640Z,88.60
2017-03-10T21:04:57.282Z,88.80
2017-03-10T21:05:59.334Z,89.00
2017-03-10T21:07:00.614Z,89.00
2017-03-10T21:08:02.137Z,88.70
2017-03-10T21:09:03.429Z,89.20
2017-03-10T21:10:04.770Z,89.20
2017-03-10T21:11:06.132Z,89.30
2017-03-10T21:12:08.060Z,88.90
2017-03-10T21:13:09.383Z,89.00
2017-03-10T21:14:10.793Z,89.00
2017-03-10T21:15:12.124Z,89.40
2017-03-10T21:16:13.373Z,89.40
2017-03-10T21:17:14.890Z,89.60
2017-03-10T21:18:15.867Z,89.60
2017-03-10T21:19:17.205Z,89.20
2017-03-10T21:20:18.609Z,88.90
2017-03-10T21:21:19.966Z,88.90
2017-03-10T21:22:22.073Z,88.80
2017-03-10T21:23:23.477Z,89.60
2017-03-10T21:24:24.866Z,90.00
2017-03-10T21:25:26.260Z,90.10
2017-03-10T21:26:27.880Z,89.90
2017-03-10T21:27:29.263Z,89.80
2017-03-10T21:28:30.485Z,89.60
2017-03-10T21:29:31.891Z,90.00
2017-03-10T21:30:32.841Z,90.00
2017-03-10T21:31:35.163Z,90.20
2017-03-10T21:32:36.377Z,90.20
2017-03-10T21:33:37.620Z,90.70
2017-03-10T21:34:38.521Z,90.70
2017-03-10T21:35:40.031Z,90.60
2017-03-10T21:36:41.487Z,90.00
2017-03-10T21:37:43.227Z,89.60
2017-03-10T21:38:44.872Z,89.90
2017-03-10T21:39:46.093Z,90.30
2017-03-10T21:40:47.246Z,90.60
2017-03-10T21:41:48.506Z,90.30
2017-03-10T21:42:49.659Z,90.20
2017-03-10T21:43:50.930Z,89.90
2017-03-10T21:44:52.244Z,89.50
2017-03-10T21:45:53.554Z,90.20
2017-03-10T21:46:54.950Z,90.80
2017-03-10T21:47:56.562Z,91.30
2017-03-10T21:48:57.550Z,91.50
2017-03-10T21:49:57.336Z,91.50
2017-03-10T21:50:57.639Z,91.10
2017-03-10T21:51:58.071Z,91.10
2017-03-10T21:52:58.497Z,91.30
2017-03-10T21:53:59.398Z,91.70
2017-03-10T21:54:59.709Z,91.90
2017-03-10T21:55:59.477Z,91.90
2017-03-10T21:56:59.186Z,92.20
2017-03-10T21:57:58.686Z,92.10
2017-03-10T21:58:58.116Z,92.10
2017-03-10T21:59:57.865Z,91.90
2017-03-10T22:00:57.304Z,91.90
2017-03-10T22:01:57.009Z,91.60
2017-03-10T22:02:56.613Z,91.60
2017-03-10T22:03:56.422Z,91.10
2017-03-10T22:04:56.121Z,90.80
2017-03-10T22:05:55.341Z,91.40
2017-03-10T22:06:54.486Z,91.60
2017-03-10T22:07:53.552Z,92.00
2017-03-10T22:08:52.805Z,92.00
2017-03-10T22:09:52.010Z,92.30
2017-03-10T22:10:51.190Z,92.20
2017-03-10T22:11:50.409Z,92.30
2017-03-10T22:12:49.619Z,92.70
2017-03-10T22:13:48.624Z,92.60
2017-03-10T22:14:47.788Z,92.60
2017-03-10T22:15:47.047Z,92.80
2017-03-10T22:16:46.111Z,92.90
2017-03-10T22:17:45.090Z,92.60
2017-03-10T22:18:44.499Z,92.80
2017-03-10T22:19:43.550Z,92.50
2017-03-10T22:20:42.523Z,92.40
2017-03-10T22:21:41.112Z,92.40
2017-03-10T22:22:40.115Z,92.10
2017-03-10T22:23:39.137Z,91.80
2017-03-10T22:24:38.170Z,91.40
2017-03-10T22:25:37.326Z,91.50
2017-03-10T22:26:36.397Z,91.40
2017-03-10T22:27:35.455Z,91.10
2017-03-10T22:28:34.437Z,91.30
2017-03-10T22:29:33.523Z,91.10
2017-03-10T22:30:32.547Z,90.70
2017-03-10T22:31:31.489Z,90.70
2017-03-10T22:32:30.175Z,90.70
2017-03-10T22:33:29.163Z,90.30
2017-03-10T22:34:28.169Z,90.40
2017-03-10T22:35:27.138Z,90.80
2017-03-10T22:36:26.176Z,90.70
2017-03-10T22:37:25.161Z,90.90
2017-03-10T22:38:23.864Z,90.90
2017-03-10T22:39:22.946Z,91.10
2017-03-10T22:40:21.979Z,91.00
2017-03-10T22:41:20.971Z,91.30
2017-03-10T22:42:20.154Z,90.90
2017-03-10T22:43:19.155Z,91.10
2017-03-10T22:44:18.142Z,91.10
2017-03-10T22:45:17.115Z,91.60
2017-03-10T22:46:16.543Z,91.40
2017-03-10T22:47:15.625Z,91.70
2017-03-10T22:48:14.647Z,91.60
2017-03-10T22:49:13.791Z,90.80
2017-03-10T22:50:12.987Z,90.60
2017-03-10T22:51:12.011Z,90.60
2017-03-10T22:52:11.074Z,89.60
2017-03-10T22:53:10.067Z,89.30
2017-03-10T22:54:09.135Z,89.40
2017-03-10T22:55:07.770Z,89.40
2017-03-10T22:56:06.754Z,89.20
2017-03-10T22:57:05.744Z,89.00
2017-03-10T22:58:04.755Z,89.50
2017-03-10T22:59:03.358Z,89.50
2017-03-10T23:00:02.391Z,89.90
2017-03-10T23:01:01.389Z,89.80
2017-03-10T23:02:00.451Z,89.70
2017-03-10T23:02:59.460Z,90.10
2017-03-10T23:03:58.531Z,89.70
2017-03-10T23:04:57.635Z,89.60
2017-03-10T23:05:57.066Z,89.80
2017-03-10T23:06:56.043Z,89.30
2017-03-10T23:07:54.654Z,89.30
2017-03-10T23:08:56.233Z,89.00
2017-03-10T23:09:55.610Z,88.80
2017-03-10T23:10:54.604Z,88.30
2017-03-10T23:11:56.231Z,88.70
2017-03-10T23:12:55.610Z,89.00
2017-03-10T23:13:54.630Z,89.00
2017-03-10T23:14:53.210Z,89.00
2017-03-10T23:15:51.839Z,88.40
2017-03-10T23:16:50.886Z,88.00
2017-03-10T23:17:49.894Z,88.10
2017-03-10T23:18:48.559Z,88.10
2017-03-10T23:19:47.579Z,87.90
2017-03-10T23:20:46.296Z,87.90
2017-03-10T23:21:45.314Z,87.70
2017-03-10T23:22:44.306Z,87.90
2017-03-10T23:23:43.324Z,88.00
2017-03-10T23:24:42.319Z,88.90
2017-03-10T23:25:41.399Z,89.50
2017-03-10T23:26:40.432Z,89.20
2017-03-10T23:27:39.460Z,89.20
2017-03-10T23:28:38.520Z,89.60
2017-03-10T23:29:38.057Z,89.80
2017-03-10T23:30:37.341Z,89.20
2017-03-10T23:31:40.315Z,88.30
2017-03-10T23:32:39.319Z,88.30
2017-03-10T23:33:38.283Z,88.30
2017-03-10T23:34:37.272Z,88.00
2017-03-10T23:35:36.278Z,88.20
2017-03-10T23:36:34.886Z,88.20
2017-03-10T23:37:34.116Z,87.70
2017-03-10T23:38:33.112Z,87.50
2017-03-10T23:39:32.505Z,86.90
2017-03-10T23:40:31.527Z,87.70
2017-03-10T23:41:30.792Z,88.30
2017-03-10T23:42:29.800Z,88.60
2017-03-10T23:43:30.069Z,89.50
2017-03-10T23:44:29.151Z,89.60
2017-03-10T23:45:28.595Z,89.90
2017-03-10T23:46:27.604Z,89.80
2017-03-10T23:47:28.235Z,89.80
2017-03-10T23:48:27.084Z,90.00
2017-03-10T23:49:26.149Z,89.10
2017-03-10T23:50:25.246Z,89.20
2017-03-10T23:51:24.604Z,89.50
2017-03-10T23:52:23.758Z,89.80
2017-03-10T23:53:22.780Z,88.70
2017-03-10T23:54:21.778Z,89.30
2017-03-10T23:55:21.057Z,90.00
2017-03-10T23:56:20.745Z,88.90
2017-03-10T23:57:20.238Z,88.90
2017-03-10T23:58:19.702Z,87.60
2017-03-10T23:59:18.716Z,87.40
